Time;durP1;ratioP1;P1;durP2;ratioP2;P2;SDS_P1;SDS_P2;PMS_P1;PMS_P2;Temp;Humidity;BMP_temperature;BMP_pressure;BME280_temperature;BME280_humidity;BME280_pressure;Samples;Min_cycle;Max_cycle;Signal;HPM_P1;HPM_P2
2023/05/21 00:00:40;;;;;;;18.85;9.75;;;;;;;13.49;97.56;100013.91;4877792;29;20043;-81
2023/05/21 00:03:25;;;;;;;16.60;9.60;;;;;;;13.37;97.92;99999.59;4876060;29;20044;-82
2023/05/21 00:06:12;;;;;;;18.48;9.55;;;;;;;13.44;98.05;100000.50;4874765;29;20040;-82
2023/05/21 00:08:56;;;;;;;15.48;9.95;;;;;;;13.25;98.75;99991.34;4876645;29;20093;-82
2023/05/21 00:11:44;;;;;;;14.05;9.43;;;;;;;13.16;99.45;99993.28;4883560;29;20055;-83
2023/05/21 00:14:28;;;;;;;20.52;11.32;;;;;;;13.25;99.71;99999.25;4881741;29;20060;-83
2023/05/21 00:17:12;;;;;;;15.95;9.43;;;;;;;13.16;100.00;100003.84;4880210;29;20047;-83
2023/05/21 00:19:56;;;;;;;16.00;9.95;;;;;;;12.99;100.00;99987.44;4877597;29;20165;-82
2023/05/21 00:22:41;;;;;;;23.90;10.38;;;;;;;13.07;100.00;100003.16;4883722;29;20048;-82
2023/05/21 00:25:24;;;;;;;16.33;9.50;;;;;;;13.11;100.00;99996.50;4879840;29;20056;-82
2023/05/21 00:28:09;;;;;;;16.00;10.25;;;;;;;13.21;100.00;99995.38;4885060;29;20530;-82
2023/05/21 00:30:52;;;;;;;13.25;8.82;;;;;;;13.09;100.00;99987.97;4886085;29;20055;-82
2023/05/21 00:33:36;;;;;;;17.30;10.18;;;;;;;13.08;100.00;100003.97;4878929;29;20056;-83
2023/05/21 00:36:22;;;;;;;18.05;10.10;;;;;;;13.13;100.00;99985.75;4879381;29;20124;-84
2023/05/21 00:39:07;;;;;;;18.88;10.48;;;;;;;13.03;100.00;100001.09;4871601;29;20068;-84
2023/05/21 00:41:51;;;;;;;17.65;10.80;;;;;;;13.10;100.00;100004.59;4880070;29;20093;-83
2023/05/21 00:44:35;;;;;;;17.02;11.13;;;;;;;12.90;100.00;99994.66;4881794;29;20041;-83
2023/05/21 00:47:20;;;;;;;19.90;11.57;;;;;;;13.08;100.00;100010.06;4875398;29;20109;-81
2023/05/21 00:50:05;;;;;;;20.48;10.77;;;;;;;12.99;100.00;99983.00;4878483;29;20041;-80
2023/05/21 00:52:49;;;;;;;18.02;9.85;;;;;;;12.97;100.00;100010.53;4870146;29;20076;-81
2023/05/21 00:55:35;;;;;;;18.98;10.32;;;;;;;12.96;100.00;100003.66;4871297;29;20403;-81
2023/05/21 00:58:20;;;;;;;16.08;10.60;;;;;;;12.95;100.00;100002.81;4870293;29;20419;-82
2023/05/21 01:01:05;;;;;;;17.10;10.38;;;;;;;12.90;100.00;100005.19;4870227;29;20036;-82
2023/05/21 01:03:51;;;;;;;19.65;10.77;;;;;;;12.83;100.00;99978.78;4873636;29;20132;-82
2023/05/21 01:06:36;;;;;;;19.90;11.18;;;;;;;12.81;100.00;99987.88;4874450;29;20129;-82
2023/05/21 01:09:20;;;;;;;18.42;10.88;;;;;;;12.60;100.00;99984.19;4871243;29;20044;-82
2023/05/21 01:12:05;;;;;;;19.55;10.90;;;;;;;12.64;100.00;99988.09;4871759;29;20521;-81
2023/05/21 01:14:50;;;;;;;18.23;11.18;;;;;;;12.76;100.00;99987.59;4869841;29;20053;-82
2023/05/21 01:17:35;;;;;;;26.73;12.73;;;;;;;12.60;100.00;99986.00;4866826;29;20074;-82
2023/05/21 01:20:19;;;;;;;19.98;12.70;;;;;;;12.67;100.00;99987.72;4869141;29;20080;-82
2023/05/21 01:23:04;;;;;;;20.77;11.73;;;;;;;12.73;100.00;99998.50;4874182;29;20069;-80
2023/05/21 01:25:48;;;;;;;19.58;12.35;;;;;;;12.41;100.00;99991.66;4870638;29;20116;-81
2023/05/21 01:28:33;;;;;;;19.83;11.80;;;;;;;12.57;100.00;99997.72;4872774;29;20036;-81
2023/05/21 01:31:39;;;;;;;21.88;11.85;;;;;;;12.61;100.00;99985.84;4866692;29;20049;-80
2023/05/21 01:34:39;;;;;;;20.83;12.25;;;;;;;12.52;100.00;99985.13;4868863;29;20052;-81
2023/05/21 01:37:36;;;;;;;19.90;12.07;;;;;;;12.48;100.00;99985.66;4882875;29;20044;-80
2023/05/21 01:40:33;;;;;;;22.75;12.18;;;;;;;12.36;100.00;99987.94;4866578;29;20161;-80
2023/05/21 01:43:18;;;;;;;19.63;11.75;;;;;;;12.40;100.00;99990.03;4870683;29;20055;-82
2023/05/21 01:46:04;;;;;;;22.45;13.20;;;;;;;12.22;100.00;99971.16;4868430;29;20408;-82
2023/05/21 01:48:50;;;;;;;21.40;11.40;;;;;;;12.36;100.00;99987.94;4871424;29;20408;-82
2023/05/21 01:51:35;;;;;;;24.00;13.32;;;;;;;12.34;100.00;99984.69;4866629;29;20080;-82
2023/05/21 01:54:20;;;;;;;25.30;12.95;;;;;;;12.37;100.00;99982.47;4864278;29;20052;-82
2023/05/21 01:57:05;;;;;;;20.08;13.32;;;;;;;12.40;100.00;99973.41;4870196;29;20048;-82
2023/05/21 01:59:52;;;;;;;20.00;12.65;;;;;;;12.47;100.00;99978.75;4872952;29;20548;-81
2023/05/21 02:02:35;;;;;;;22.60;14.07;;;;;;;12.33;100.00;99962.00;4868406;29;20128;-82
2023/05/21 02:05:19;;;;;;;27.38;13.13;;;;;;;12.36;100.00;99964.25;4868225;29;20072;-82
2023/05/21 02:08:04;;;;;;;21.20;13.60;;;;;;;12.25;100.00;99971.59;4872616;29;20049;-82
2023/05/21 02:10:49;;;;;;;29.17;13.63;;;;;;;12.28;100.00;99960.72;4872493;29;20498;-82
2023/05/21 02:13:33;;;;;;;25.05;13.55;;;;;;;12.53;100.00;99967.47;4868540;29;20507;-83
2023/05/21 02:16:18;;;;;;;25.90;13.45;;;;;;;12.40;100.00;99957.63;4866678;29;20051;-82
2023/05/21 02:19:03;;;;;;;27.90;13.88;;;;;;;12.41;100.00;99962.72;4869425;29;20044;-82
2023/05/21 02:21:47;;;;;;;25.73;14.25;;;;;;;12.33;100.00;99941.72;4872295;29;20407;-81
2023/05/21 02:24:31;;;;;;;29.98;12.93;;;;;;;12.32;100.00;99955.09;4870466;29;20072;-81
2023/05/21 02:27:16;;;;;;;23.95;13.98;;;;;;;12.36;100.00;99959.00;4877108;29;20069;-82
2023/05/21 02:30:03;;;;;;;22.20;12.93;;;;;;;12.33;100.00;99939.09;4875868;29;20047;-83
2023/05/21 02:32:48;;;;;;;28.45;13.65;;;;;;;12.35;100.00;99954.72;4879802;29;20040;-82
2023/05/21 02:35:32;;;;;;;21.70;12.73;;;;;;;12.19;100.00;99947.84;4880268;29;20101;-83
2023/05/21 02:38:18;;;;;;;26.42;13.45;;;;;;;11.91;100.00;99925.59;4885217;29;20047;-82
2023/05/21 02:41:02;;;;;;;26.38;14.38;;;;;;;11.99;100.00;99943.91;4886788;29;20448;-82
2023/05/21 02:43:47;;;;;;;22.45;13.30;;;;;;;11.92;100.00;99939.53;4883036;29;20072;-81
2023/05/21 02:46:31;;;;;;;27.23;13.15;;;;;;;11.83;100.00;99951.97;4881108;29;20056;-81
2023/05/21 02:49:15;;;;;;;21.88;13.77;;;;;;;11.91;100.00;99943.16;4876003;29;20061;-81
2023/05/21 02:51:58;;;;;;;24.27;14.60;;;;;;;11.64;100.00;99938.34;4867119;29;20526;-81
2023/05/21 02:54:43;;;;;;;24.10;13.68;;;;;;;11.79;100.00;99941.00;4867535;29;20587;-81
2023/05/21 02:57:28;;;;;;;21.58;13.30;;;;;;;11.69;100.00;99946.53;4872595;29;20503;-82
2023/05/21 03:00:12;;;;;;;21.83;12.70;;;;;;;11.81;100.00;99954.78;4872252;29;20045;-81
2023/05/21 03:02:56;;;;;;;24.42;13.45;;;;;;;11.79;100.00;99945.44;4871088;29;20487;-80
2023/05/21 03:05:40;;;;;;;24.33;13.70;;;;;;;11.91;100.00;99943.16;4874361;29;20051;-80
2023/05/21 03:08:25;;;;;;;27.30;13.18;;;;;;;11.84;100.00;99936.00;4875324;29;20096;-81
2023/05/21 03:11:09;;;;;;;21.75;12.88;;;;;;;11.51;100.00;99928.44;4872598;29;20136;-80
2023/05/21 03:13:53;;;;;;;23.02;13.13;;;;;;;11.53;100.00;99929.06;4875631;29;20052;-81
2023/05/21 03:16:40;;;;;;;25.17;12.38;;;;;;;11.57;100.00;99932.97;4870257;29;20056;-80
2023/05/21 03:19:25;;;;;;;23.58;13.05;;;;;;;11.61;100.00;99930.00;4868130;29;20040;-80
2023/05/21 03:22:10;;;;;;;19.75;12.23;;;;;;;11.55;100.00;99940.22;4874645;29;20124;-80
2023/05/21 03:24:54;;;;;;;25.67;13.02;;;;;;;11.53;100.00;99931.69;4875180;29;20044;-80
2023/05/21 03:27:39;;;;;;;28.45;13.85;;;;;;;11.74;100.00;99922.28;4872146;29;20065;-81
2023/05/21 03:30:23;;;;;;;20.75;12.43;;;;;;;11.71;100.00;99923.50;4875309;29;20143;-82
2023/05/21 03:33:08;;;;;;;26.80;13.77;;;;;;;11.68;100.00;99917.75;4884507;29;20093;-81
2023/05/21 03:35:53;;;;;;;22.25;12.57;;;;;;;11.80;100.00;99921.59;4873707;29;20510;-80
2023/05/21 03:38:37;;;;;;;23.63;13.57;;;;;;;11.56;100.00;99910.31;4870286;29;20093;-81
2023/05/21 03:41:21;;;;;;;26.52;13.27;;;;;;;11.80;100.00;99920.75;4871003;29;20184;-82
2023/05/21 03:44:04;;;;;;;21.75;12.38;;;;;;;11.54;100.00;99907.03;4875283;29;20249;-82
2023/05/21 03:46:48;;;;;;;25.63;13.23;;;;;;;11.55;100.00;99907.88;4873227;29;20150;-81
2023/05/21 03:49:32;;;;;;;19.83;12.63;;;;;;;11.53;100.00;99910.66;4872925;29;20145;-81
2023/05/21 03:52:16;;;;;;;23.52;12.77;;;;;;;11.62;100.00;99905.34;4869938;29;20092;-81
2023/05/21 03:55:00;;;;;;;20.88;12.55;;;;;;;11.88;100.00;99920.66;4870212;29;20405;-82
2023/05/21 03:57:44;;;;;;;21.65;12.52;;;;;;;11.72;100.00;99916.41;4868798;29;20053;-81
2023/05/21 04:00:28;;;;;;;;;;;;;;;11.90;100.00;99912.59;4872482;29;20468;-81
2023/05/21 04:03:13;;;;;;;24.67;13.20;;;;;;;11.94;100.00;99924.38;4873035;29;20349;-82
2023/05/21 04:05:58;;;;;;;24.70;11.15;;;;;;;12.00;100.00;99926.31;4872970;29;20048;-81
2023/05/21 04:08:42;;;;;;;25.88;12.82;;;;;;;11.96;100.00;99923.22;4871230;29;20535;-81
2023/05/21 04:11:26;;;;;;;15.35;9.77;;;;;;;12.02;100.00;99916.44;4870180;29;20058;-81
2023/05/21 04:14:10;;;;;;;23.33;11.35;;;;;;;12.16;100.00;99929.75;4870575;29;20413;-81
2023/05/21 04:16:55;;;;;;;16.20;10.65;;;;;;;11.96;100.00;99919.75;4871230;29;20078;-81
2023/05/21 04:19:39;;;;;;;15.60;10.13;;;;;;;11.95;100.00;99912.88;4869724;29;20074;-81
2023/05/21 04:22:25;;;;;;;12.68;8.80;;;;;;;12.18;100.00;99914.59;4870135;29;20120;-81
2023/05/21 04:25:09;;;;;;;17.15;9.65;;;;;;;12.08;100.00;99902.56;4871621;29;20093;-80
2023/05/21 04:27:53;;;;;;;18.40;9.57;;;;;;;12.24;100.00;99913.88;4869116;29;20067;-82
2023/05/21 04:30:37;;;;;;;14.93;9.18;;;;;;;12.11;100.00;99896.91;4877889;29;20211;-82
2023/05/21 04:33:22;;;;;;;16.45;9.95;;;;;;;12.39;100.00;99898.88;4874803;29;20044;-82
2023/05/21 04:36:10;;;;;;;15.75;9.40;;;;;;;12.37;100.00;99898.22;4877473;29;20048;-83
2023/05/21 04:38:54;;;;;;;15.35;9.25;;;;;;;12.50;100.00;99918.66;4859462;29;20533;-82
2023/05/21 04:41:39;;;;;;;14.13;9.35;;;;;;;12.39;100.00;99919.94;4871766;29;20052;-82
2023/05/21 04:44:23;;;;;;;13.98;8.40;;;;;;;12.35;100.00;99897.59;4877978;29;20040;-82
2023/05/21 04:47:07;;;;;;;15.75;9.23;;;;;;;12.36;100.00;99903.69;4866159;29;20044;-82
2023/05/21 04:49:52;;;;;;;16.35;9.07;;;;;;;12.35;100.00;99887.06;4871584;29;20502;-82
2023/05/21 04:52:39;;;;;;;15.70;8.93;;;;;;;12.33;100.00;99907.50;4871811;29;20047;-82
2023/05/21 04:55:23;;;;;;;15.32;9.35;;;;;;;12.44;100.00;99906.22;4869775;29;20093;-82
2023/05/21 04:58:09;;;;;;;15.32;9.23;;;;;;;12.50;100.00;99896.75;4869343;29;20427;-83
2023/05/21 05:00:54;;;;;;;16.08;8.63;;;;;;;12.63;100.00;99915.34;4876481;29;20102;-82
2023/05/21 05:03:39;;;;;;;13.25;8.60;;;;;;;12.67;100.00;99913.13;4875704;29;20138;-83
2023/05/21 05:06:24;;;;;;;17.00;9.10;;;;;;;12.48;99.59;99890.88;4874912;29;20055;-80
2023/05/21 05:09:08;;;;;;;12.63;8.35;;;;;;;12.57;99.00;99881.84;4872429;29;20182;-80
2023/05/21 05:11:53;;;;;;;17.00;8.40;;;;;;;12.94;98.11;99908.94;4866389;29;20124;-80
2023/05/21 05:14:37;;;;;;;13.82;7.53;;;;;;;12.94;97.77;99914.22;4869753;29;20081;-80
2023/05/21 05:17:23;;;;;;;14.43;8.45;;;;;;;12.89;97.37;99903.44;4874356;29;20148;-80
2023/05/21 05:20:08;;;;;;;12.30;7.70;;;;;;;12.96;96.99;99906.94;4869432;29;20440;-80
2023/05/21 05:22:52;;;;;;;14.88;7.65;;;;;;;13.04;96.51;99910.47;4870866;29;20083;-79
2023/05/21 05:25:37;;;;;;;16.60;7.95;;;;;;;12.92;96.25;99900.41;4864696;29;20060;-79
2023/05/21 05:28:21;;;;;;;9.95;7.05;;;;;;;12.95;96.51;99902.69;4873582;29;20510;-79
2023/05/21 05:31:05;;;;;;;13.00;7.75;;;;;;;12.89;99.00;99903.44;4866268;29;20161;-79
2023/05/21 05:33:50;;;;;;;11.90;8.93;;;;;;;12.91;100.00;99917.25;4872895;29;20164;-79
2023/05/21 05:36:34;;;;;;;11.82;8.57;;;;;;;12.80;100.00;99915.13;4865545;29;20048;-79
2023/05/21 05:39:18;;;;;;;12.68;9.45;;;;;;;12.77;100.00;99897.84;4870939;29;20044;-79
2023/05/21 05:42:02;;;;;;;17.20;9.05;;;;;;;12.71;100.00;99901.25;4870725;29;20097;-80
2023/05/21 05:44:46;;;;;;;13.73;8.75;;;;;;;12.73;100.00;99899.25;4869587;29;20088;-80
2023/05/21 05:47:30;;;;;;;16.52;9.23;;;;;;;12.78;100.00;99912.66;4869429;29;20056;-80
2023/05/21 05:50:14;;;;;;;16.20;9.98;;;;;;;12.74;100.00;99921.94;4869684;29;20050;-80
2023/05/21 05:52:58;;;;;;;15.40;9.15;;;;;;;12.82;100.00;99902.56;4865577;29;20072;-79
2023/05/21 05:55:42;;;;;;;14.90;9.57;;;;;;;12.81;100.00;99909.66;4868108;29;20055;-79
2023/05/21 05:58:26;;;;;;;16.25;10.43;;;;;;;12.74;100.00;99910.56;4870873;29;20408;-79
2023/05/21 06:01:11;;;;;;;16.52;10.48;;;;;;;12.73;100.00;99914.22;4869343;29;20051;-78
2023/05/21 06:03:56;;;;;;;18.00;12.57;;;;;;;12.82;100.00;99926.28;4869211;29;20076;-80
2023/05/21 06:06:40;;;;;;;19.27;13.10;;;;;;;12.89;100.00;99929.00;4869864;29;20048;-82
2023/05/21 06:09:25;;;;;;;17.70;11.50;;;;;;;12.82;100.00;99926.28;4874950;29;20080;-81
2023/05/21 06:12:09;;;;;;;20.45;11.93;;;;;;;12.83;100.00;99930.53;4875519;29;20092;-81
2023/05/21 06:14:52;;;;;;;20.98;11.55;;;;;;;12.89;100.00;99913.19;4867862;29;20044;-80
2023/05/21 06:17:36;;;;;;;17.63;10.88;;;;;;;13.08;100.00;99922.25;4866081;29;20108;-80
2023/05/21 06:20:20;;;;;;;17.27;10.30;;;;;;;13.26;100.00;99930.53;4867544;29;20548;-80
2023/05/21 06:23:06;;;;;;;18.25;9.23;;;;;;;13.48;100.00;99927.09;4866480;29;20590;-80
2023/05/21 06:25:49;;;;;;;18.25;11.20;;;;;;;13.62;99.13;99931.44;4871362;29;20624;-79
2023/05/21 06:28:33;;;;;;;17.63;10.50;;;;;;;13.69;98.80;99928.84;4877044;29;20099;-83
2023/05/21 06:31:21;;;;;;;16.35;9.88;;;;;;;13.37;99.69;99942.38;4866764;29;20048;-80
2023/05/21 06:34:05;;;;;;;15.85;9.63;;;;;;;13.39;99.30;99926.38;4871478;29;20234;-79
2023/05/21 06:36:49;;;;;;;14.82;8.88;;;;;;;13.63;98.34;99911.16;4865244;29;20408;-81
2023/05/21 06:39:34;;;;;;;15.32;9.50;;;;;;;13.67;96.79;99938.78;4872932;29;20088;-81
2023/05/21 06:42:17;;;;;;;13.70;8.77;;;;;;;13.88;96.95;99931.81;4873880;29;20043;-80
2023/05/21 06:45:02;;;;;;;16.27;8.15;;;;;;;13.86;94.43;99926.75;4874230;29;20592;-81
2023/05/21 06:47:45;;;;;;;14.52;8.20;;;;;;;14.02;94.19;99930.88;4865772;29;20132;-81
2023/05/21 06:50:30;;;;;;;13.90;7.85;;;;;;;14.21;94.48;99947.00;4865727;29;20053;-81
2023/05/21 06:53:15;;;;;;;20.30;9.13;;;;;;;14.36;93.92;99947.69;4871069;29;20049;-81
2023/05/21 06:55:59;;;;;;;20.10;8.93;;;;;;;14.26;92.68;99911.09;4878312;29;20100;-81
2023/05/21 06:58:43;;;;;;;15.43;8.43;;;;;;;14.33;91.49;99931.41;4876144;29;20073;-80
2023/05/21 07:01:27;;;;;;;17.25;8.45;;;;;;;14.28;91.10;99932.84;4869820;29;20073;-80
2023/05/21 07:04:11;;;;;;;14.38;7.68;;;;;;;14.19;90.29;99926.06;4867242;29;20564;-79
2023/05/21 07:06:56;;;;;;;13.45;7.53;;;;;;;14.06;88.80;99940.03;4875326;29;20140;-80
2023/05/21 07:09:40;;;;;;;16.13;7.72;;;;;;;14.66;85.47;99944.75;4866185;29;20452;-79
2023/05/21 07:12:24;;;;;;;14.57;7.57;;;;;;;14.76;87.14;99948.88;4874349;29;20176;-81
2023/05/21 07:15:09;;;;;;;15.10;7.45;;;;;;;14.83;87.38;99933.84;4864484;29;20044;-80
2023/05/21 07:17:52;;;;;;;14.30;7.28;;;;;;;14.96;86.36;99948.91;4874246;29;20078;-80
2023/05/21 07:20:37;;;;;;;11.80;7.28;;;;;;;15.08;87.26;99947.31;4868694;29;20105;-81
2023/05/21 07:23:21;;;;;;;13.07;7.38;;;;;;;15.44;85.72;99936.53;4866299;29;20174;-81
2023/05/21 07:26:05;;;;;;;9.73;7.07;;;;;;;15.53;86.06;99925.53;4869866;29;20354;-81
2023/05/21 07:28:49;;;;;;;9.93;7.07;;;;;;;15.60;84.63;99930.78;4865947;29;20053;-80
2023/05/21 07:31:33;;;;;;;16.08;7.43;;;;;;;15.57;82.66;99947.09;4863111;29;20113;-79
2023/05/21 07:34:17;;;;;;;13.02;7.20;;;;;;;15.80;83.24;99930.78;4866477;29;20052;-82
2023/05/21 07:37:01;;;;;;;12.35;7.13;;;;;;;15.79;82.60;99942.38;4868899;29;20519;-84
2023/05/21 07:39:46;;;;;;;12.02;7.80;;;;;;;15.81;82.24;99945.63;4867180;29;20048;-84
2023/05/21 07:42:30;;;;;;;12.18;8.00;;;;;;;15.90;81.72;99948.09;4866101;29;20096;-84
2023/05/21 07:45:14;;;;;;;16.05;7.55;;;;;;;15.68;80.99;99929.78;4869134;29;20051;-84
2023/05/21 07:47:58;;;;;;;12.02;6.90;;;;;;;16.05;80.96;99947.88;4861284;29;20075;-82
2023/05/21 07:50:43;;;;;;;17.13;8.18;;;;;;;16.18;80.70;99947.81;4866856;29;20515;-83
2023/05/21 07:53:31;;;;;;;16.02;8.38;;;;;;;16.21;82.00;99957.19;4868916;29;20076;-82
2023/05/21 07:56:15;;;;;;;11.57;7.18;;;;;;;16.06;79.91;99944.19;4866715;29;20044;-84
2023/05/21 07:59:00;;;;;;;14.45;7.65;;;;;;;16.08;79.91;99944.81;4868457;29;20205;-84
2023/05/21 08:01:44;;;;;;;13.88;7.00;;;;;;;15.93;78.12;99953.00;4868584;29;20048;-84
2023/05/21 08:04:28;;;;;;;11.20;7.28;;;;;;;16.24;78.46;99946.16;4871045;29;20076;-84
2023/05/21 08:07:13;;;;;;;10.05;6.53;;;;;;;16.52;78.44;99950.34;4870130;29;20400;-84
2023/05/21 08:09:58;;;;;;;14.25;7.85;;;;;;;16.35;76.81;99950.81;4868971;29;20044;-83
2023/05/21 08:12:42;;;;;;;10.77;5.75;;;;;;;16.51;76.13;99943.41;4869598;29;20522;-83
2023/05/21 08:15:26;;;;;;;10.40;5.80;;;;;;;16.64;75.47;99942.53;4872060;29;20048;-83
2023/05/21 08:18:10;;;;;;;10.10;6.45;;;;;;;16.53;74.23;99944.03;4870422;29;20159;-82
2023/05/21 08:20:54;;;;;;;7.78;5.45;;;;;;;16.41;72.46;99941.22;4875224;29;20040;-82
2023/05/21 08:23:38;;;;;;;7.20;4.85;;;;;;;16.51;71.83;99925.66;4872639;29;20055;-82
2023/05/21 08:26:22;;;;;;;7.57;4.90;;;;;;;16.38;71.97;99933.66;4873274;29;20072;-83
2023/05/21 08:29:06;;;;;;;9.70;5.82;;;;;;;16.16;72.92;99917.28;4871435;29;20052;-82
2023/05/21 08:31:50;;;;;;;11.43;5.72;;;;;;;16.59;73.69;99940.50;4874769;29;20044;-83
2023/05/21 08:34:34;;;;;;;9.60;5.65;;;;;;;16.61;71.01;99935.00;4869551;29;20060;-81
2023/05/21 08:37:20;;;;;;;11.63;5.45;;;;;;;16.53;71.45;99946.66;4870358;29;20051;-81
2023/05/21 08:40:05;;;;;;;8.35;4.90;;;;;;;16.66;70.12;99925.38;4868575;29;20082;-81
2023/05/21 08:42:49;;;;;;;10.02;4.97;;;;;;;16.86;69.91;99932.41;4869275;29;20108;-85
2023/05/21 08:45:36;;;;;;;6.93;4.80;;;;;;;17.05;70.55;99940.47;4869065;29;20052;-83
2023/05/21 08:48:22;;;;;;;10.50;5.10;;;;;;;17.08;68.84;99926.75;4866764;29;20044;-84
2023/05/21 08:51:06;;;;;;;6.80;4.60;;;;;;;16.92;66.93;99938.69;4880520;29;20112;-85
2023/05/21 08:53:50;;;;;;;9.45;5.57;;;;;;;17.18;67.77;99937.72;4872462;29;20408;-83
2023/05/21 08:56:36;;;;;;;10.50;5.50;;;;;;;17.59;66.66;99934.72;4873885;29;20055;-83
2023/05/21 08:59:20;;;;;;;9.10;5.57;;;;;;;16.77;65.24;99941.66;4868354;29;20052;-85
2023/05/21 09:02:04;;;;;;;12.63;6.50;;;;;;;16.84;66.67;99931.78;4868780;29;20052;-82
2023/05/21 09:04:50;;;;;;;8.40;6.20;;;;;;;17.47;66.82;99934.63;4865214;29;20048;-80
2023/05/21 09:07:43;;;;;;;11.23;5.72;;;;;;;17.64;65.58;99930.38;4870057;29;20473;-83
2023/05/21 09:10:35;;;;;;;8.55;6.18;;;;;;;17.56;66.51;99931.47;4866904;29;20064;-81
2023/05/21 09:13:20;;;;;;;8.63;5.85;;;;;;;17.55;64.90;99929.84;4885990;29;20052;-80
2023/05/21 09:16:05;;;;;;;7.47;5.22;;;;;;;17.76;65.77;99938.44;4868282;29;20097;-83
2023/05/21 09:18:49;;;;;;;13.30;5.85;;;;;;;17.41;65.42;99931.00;4869450;29;20128;-80
2023/05/21 09:21:33;;;;;;;7.07;5.57;;;;;;;17.63;64.74;99933.25;4867922;29;20089;-83
2023/05/21 09:24:21;;;;;;;9.73;5.65;;;;;;;17.69;64.30;99932.41;4866581;29;20079;-83
2023/05/21 09:27:06;;;;;;;8.00;5.85;;;;;;;18.01;64.28;99926.13;4870376;29;20047;-80
2023/05/21 09:29:50;;;;;;;10.80;5.50;;;;;;;18.26;64.09;99932.19;4865488;29;20064;-81
2023/05/21 09:32:34;;;;;;;10.27;5.75;;;;;;;18.23;61.58;99916.69;4869783;29;20518;-83
2023/05/21 09:35:18;;;;;;;10.65;5.90;;;;;;;17.68;62.58;99909.50;4871506;29;20044;-83
2023/05/21 09:38:08;;;;;;;8.48;5.78;;;;;;;18.34;63.76;99923.09;4875809;29;20076;-85
2023/05/21 09:40:55;;;;;;;8.90;5.90;;;;;;;17.89;62.52;99926.88;4869371;29;20125;-85
2023/05/21 09:43:43;;;;;;;7.22;5.15;;;;;;;18.46;62.61;99919.66;4870330;29;20095;-82
2023/05/21 09:46:39;;;;;;;8.60;6.10;;;;;;;17.73;61.99;99917.66;4871934;29;20440;-82
2023/05/21 09:49:25;;;;;;;8.13;5.75;;;;;;;18.36;63.04;99921.03;4856508;29;20072;-83
2023/05/21 09:52:10;;;;;;;9.30;6.50;;;;;;;18.45;64.04;99920.72;4867816;29;20499;-83
2023/05/21 09:54:54;;;;;;;10.38;6.43;;;;;;;18.25;63.28;99904.00;4870372;29;20051;-82
2023/05/21 09:57:45;;;;;;;6.95;6.00;;;;;;;18.40;62.36;99916.88;4867434;29;20101;-82
2023/05/21 10:00:31;;;;;;;9.02;6.45;;;;;;;18.62;62.78;99895.13;4868867;29;20082;-83
2023/05/21 10:03:15;;;;;;;13.07;7.10;;;;;;;18.73;60.62;99901.50;4867026;29;20072;-83
2023/05/21 10:06:00;;;;;;;9.40;6.28;;;;;;;18.79;63.46;99902.44;4866669;29;20085;-82
2023/05/21 10:08:47;;;;;;;11.73;6.88;;;;;;;19.14;61.12;99901.72;4866011;29;20128;-82
2023/05/21 10:11:33;;;;;;;9.65;5.57;;;;;;;19.21;59.96;99889.13;4868245;29;20048;-83
2023/05/21 10:14:24;;;;;;;8.43;6.07;;;;;;;19.19;59.80;99901.84;4868623;29;20108;-82
2023/05/21 10:17:10;;;;;;;10.68;6.95;;;;;;;18.91;60.37;99897.97;4866001;29;20049;-80
2023/05/21 10:19:55;;;;;;;14.88;7.88;;;;;;;18.87;60.65;99904.78;4861782;29;20165;-81
2023/05/21 10:22:41;;;;;;;10.20;6.97;;;;;;;18.92;58.48;99883.63;4860245;29;20448;-81
2023/05/21 10:25:25;;;;;;;9.50;6.95;;;;;;;18.38;60.32;99897.69;4865180;29;20507;-79
2023/05/21 10:28:15;;;;;;;9.98;6.93;;;;;;;18.75;60.17;99891.44;4882712;29;20056;-83
2023/05/21 10:31:00;;;;;;;7.50;5.95;;;;;;;19.15;59.33;99892.72;4868422;29;20404;-80
2023/05/21 10:33:44;;;;;;;13.73;6.88;;;;;;;19.06;56.89;99891.41;4868438;29;20367;-81
2023/05/21 10:36:32;;;;;;;9.60;6.63;;;;;;;18.66;57.60;99888.28;4868160;29;20052;-83
2023/05/21 10:39:19;;;;;;;11.70;6.90;;;;;;;19.36;59.63;99901.16;4868863;29;20044;-85
2023/05/21 10:42:20;;;;;;;10.63;7.20;;;;;;;19.43;56.24;99888.53;4871569;29;20551;-83
2023/05/21 10:45:07;;;;;;;8.18;6.13;;;;;;;19.73;57.71;99892.09;4863028;29;20085;-84
2023/05/21 10:48:13;;;;;;;9.43;6.20;;;;;;;20.04;54.85;99885.56;4864945;29;20061;-83
2023/05/21 10:51:35;;;;;;;7.97;5.82;;;;;;;20.28;58.08;99885.50;4864657;29;20045;-83
2023/05/21 10:54:43;;;;;;;10.30;7.22;;;;;;;20.02;57.47;99890.31;4872349;29;20051;-83
2023/05/21 10:58:03;;;;;;;9.40;6.90;;;;;;;20.25;57.51;99888.66;4866914;29;20072;-83
2023/05/21 11:00:48;;;;;;;10.30;8.20;;;;;;;19.75;57.47;99877.50;4882252;29;20052;-84
2023/05/21 11:03:33;;;;;;;10.40;6.93;;;;;;;19.55;57.65;99884.03;4863566;29;20097;-83
2023/05/21 11:06:25;;;;;;;9.75;6.88;;;;;;;19.92;57.71;99884.81;4866796;29;20201;-84
2023/05/21 11:09:13;;;;;;;11.13;7.68;;;;;;;19.39;56.54;99880.22;4864130;29;20052;-83
2023/05/21 11:11:59;;;;;;;9.48;6.97;;;;;;;19.97;56.75;99871.56;4869961;29;20657;-83
2023/05/21 11:15:15;;;;;;;10.48;7.25;;;;;;;20.08;56.54;99876.06;4871911;29;20059;-83
2023/05/21 11:17:59;;;;;;;11.35;6.72;;;;;;;19.87;56.31;99869.50;4872178;29;20144;-83
2023/05/21 11:20:50;;;;;;;9.63;6.72;;;;;;;20.34;58.63;99875.72;4869082;29;20085;-83
2023/05/21 11:23:52;;;;;;;9.65;7.00;;;;;;;20.45;56.96;99874.06;4864972;29;20093;-84
2023/05/21 11:26:54;;;;;;;9.00;6.57;;;;;;;20.48;55.38;99868.25;4868316;29;20093;-83
2023/05/21 11:29:40;;;;;;;9.05;6.82;;;;;;;20.38;55.08;99868.88;4870097;29;20109;-83
2023/05/21 11:32:24;;;;;;;11.15;6.43;;;;;;;19.99;54.83;99872.16;4873515;29;20480;-83
2023/05/21 11:35:12;;;;;;;10.10;6.32;;;;;;;20.12;53.05;99865.72;4871988;29;20048;-84
2023/05/21 11:37:57;;;;;;;9.80;6.68;;;;;;;20.06;52.86;99872.84;4871645;29;20084;-84
2023/05/21 11:41:05;;;;;;;6.55;5.47;;;;;;;19.43;50.68;99867.25;4869319;29;20059;-84
2023/05/21 11:44:00;;;;;;;9.55;6.18;;;;;;;19.91;49.77;99843.19;4880730;29;20185;-82
2023/05/21 11:46:45;;;;;;;7.10;5.40;;;;;;;20.69;53.43;99853.41;4865223;29;20052;-84
2023/05/21 11:49:30;;;;;;;11.50;5.55;;;;;;;20.97;53.89;99857.09;4865295;29;20125;-86
2023/05/21 11:52:14;;;;;;;7.97;5.22;;;;;;;20.67;49.35;99856.31;4876734;29;20579;-84
2023/05/21 11:54:58;;;;;;;7.90;5.10;;;;;;;20.92;50.02;99862.31;4880126;29;20048;-83
2023/05/21 11:57:46;;;;;;;5.13;4.63;;;;;;;20.84;48.74;99866.22;4867342;29;20094;-83
2023/05/21 12:00:30;;;;;;;8.93;5.90;;;;;;;20.81;50.35;99867.50;4873228;29;20040;-83
2023/05/21 12:03:15;;;;;;;6.80;5.03;;;;;;;20.89;49.61;99868.16;4873380;29;20051;-83
2023/05/21 12:06:05;;;;;;;5.65;4.50;;;;;;;21.04;49.45;99859.59;4863874;29;20140;-83
2023/05/21 12:08:56;;;;;;;7.22;4.90;;;;;;;20.80;50.51;99855.22;4873497;29;20056;-82
2023/05/21 12:11:41;;;;;;;5.57;4.32;;;;;;;20.90;50.79;99867.91;4871434;29;20077;-83
2023/05/21 12:14:25;;;;;;;8.98;5.95;;;;;;;21.39;51.13;99853.13;4882404;29;20145;-83
2023/05/21 12:17:12;;;;;;;6.53;4.80;;;;;;;21.25;50.42;99850.81;4880161;29;20077;-83
2023/05/21 12:19:56;;;;;;;8.10;5.53;;;;;;;21.43;51.17;99866.81;4879227;29;20074;-81
2023/05/21 12:22:42;;;;;;;7.57;5.07;;;;;;;21.02;50.16;99856.34;4874395;29;20047;-82
2023/05/21 12:25:26;;;;;;;7.75;4.97;;;;;;;21.65;51.07;99858.84;4876803;29;20056;-80
2023/05/21 12:28:11;;;;;;;6.95;5.07;;;;;;;21.42;50.66;99855.34;4870893;29;20084;-78
2023/05/21 12:30:55;;;;;;;6.10;5.22;;;;;;;21.22;49.58;99845.97;4879290;29;20044;-81
2023/05/21 12:33:39;;;;;;;7.43;5.57;;;;;;;21.74;51.49;99840.53;4875370;29;20102;-80
2023/05/21 12:36:28;;;;;;;6.78;5.85;;;;;;;21.74;50.98;99840.53;4867401;29;20045;-81
2023/05/21 12:39:14;;;;;;;14.68;6.10;;;;;;;21.29;51.57;99845.78;4873533;29;20056;-84
2023/05/21 12:41:58;;;;;;;6.38;5.20;;;;;;;20.69;52.26;99827.53;4869984;29;20049;-80
2023/05/21 12:44:46;;;;;;;8.48;5.70;;;;;;;21.80;51.08;99845.66;4878436;29;20044;-80
2023/05/21 12:47:32;;;;;;;10.00;6.28;;;;;;;21.89;50.42;99847.91;4874496;29;20411;-80